createdAt,value
2019-04-26T00:00:47.468Z,100193.70
2019-04-26T00:03:21.865Z,100199.34
2019-04-26T00:05:51.842Z,100215.95
2019-04-26T00:08:22.133Z,100230.06
2019-04-26T00:10:53.327Z,100251.03
2019-04-26T00:13:40.957Z,100272.14
2019-04-26T00:16:17.662Z,100275.11
2019-04-26T00:18:47.035Z,100289.73
2019-04-26T00:21:16.381Z,100266.23
2019-04-26T00:23:46.558Z,100281.95
2019-04-26T00:26:17.589Z,100260.06
2019-04-26T00:28:47.074Z,100245.94
2019-04-26T00:31:17.209Z,100259.23
2019-04-26T00:33:47.460Z,100251.36
2019-04-26T00:36:17.201Z,100258.64
2019-04-26T00:38:46.994Z,100279.73
2019-04-26T00:41:18.479Z,100278.23
2019-04-26T00:43:49.257Z,100274.03
2019-04-26T00:46:20.890Z,100285.66
2019-04-26T00:48:53.375Z,100289.77
2019-04-26T00:51:23.540Z,100279.09
2019-04-26T00:53:54.145Z,100282.75
2019-04-26T00:56:25.361Z,100287.88
2019-04-26T00:58:55.916Z,100297.52
2019-04-26T01:01:28.035Z,100304.64
2019-04-26T01:03:57.528Z,100313.61
2019-04-26T01:06:28.488Z,100309.29
2019-04-26T01:08:57.860Z,100308.77
2019-04-26T01:11:27.187Z,100310.80
2019-04-26T01:13:56.576Z,100315.45
2019-04-26T01:16:26.397Z,100312.32
2019-04-26T01:18:57.618Z,100321.95
2019-04-26T01:21:30.000Z,100323.95
2019-04-26T01:24:01.440Z,100331.36
2019-04-26T01:26:34.963Z,100334.05
2019-04-26T01:29:07.290Z,100327.89
2019-04-26T01:31:39.971Z,100315.11
2019-04-26T01:34:10.115Z,100318.77
2019-04-26T01:36:40.956Z,100351.96
2019-04-26T01:39:12.490Z,100358.38
2019-04-26T01:41:53.298Z,100348.91
2019-04-26T01:44:27.272Z,100345.36
2019-04-26T01:46:57.687Z,100357.39
2019-04-26T01:49:28.231Z,100361.34
2019-04-26T01:52:10.041Z,100339.00
2019-04-26T01:54:42.623Z,100335.38
2019-04-26T01:57:13.463Z,100348.38
2019-04-26T01:59:47.113Z,100347.38
2019-04-26T02:02:21.335Z,100341.92
2019-04-26T02:04:55.114Z,100335.34
2019-04-26T02:07:29.077Z,100330.11
2019-04-26T02:09:58.406Z,100328.37
2019-04-26T02:12:28.789Z,100346.92
2019-04-26T02:14:58.290Z,100349.53
2019-04-26T02:17:27.852Z,100354.47
2019-04-26T02:19:57.520Z,100346.83
2019-04-26T02:22:28.630Z,100337.67
2019-04-26T02:24:58.272Z,100343.17
2019-04-26T02:27:30.389Z,100340.99
2019-04-26T02:30:01.441Z,100351.23
2019-04-26T02:32:32.537Z,100355.22
2019-04-26T02:35:03.142Z,100351.05
2019-04-26T02:37:34.571Z,100360.53
2019-04-26T02:40:06.677Z,100361.71
2019-04-26T02:42:39.044Z,100362.52
2019-04-26T02:45:36.269Z,100363.48
2019-04-26T02:48:15.410Z,100364.19
2019-04-26T02:50:52.499Z,100358.20
2019-04-26T02:53:35.348Z,100366.32
2019-04-26T02:56:13.579Z,100373.73
2019-04-26T02:58:45.954Z,100372.87
2019-04-26T03:01:16.335Z,100357.31
2019-04-26T03:03:45.806Z,100354.33
2019-04-26T03:06:16.226Z,100352.26
2019-04-26T03:08:46.250Z,100346.87
2019-04-26T03:11:18.977Z,100341.88
2019-04-26T03:13:56.010Z,100344.31
2019-04-26T03:16:40.761Z,100352.09
2019-04-26T03:19:14.453Z,100361.52
2019-04-26T03:22:03.344Z,100375.70
2019-04-26T03:24:48.786Z,100380.84
2019-04-26T03:27:41.238Z,100389.34
2019-04-26T03:30:22.373Z,100392.53
2019-04-26T03:33:09.574Z,100398.89
2019-04-26T03:35:57.230Z,100402.82
2019-04-26T03:38:34.521Z,100410.84
2019-04-26T03:41:34.330Z,100414.72
2019-04-26T03:44:15.009Z,100407.44
2019-04-26T03:46:50.504Z,100411.05
2019-04-26T03:49:36.106Z,100410.78
2019-04-26T03:52:35.458Z,100408.31
2019-04-26T03:55:27.996Z,100405.70
2019-04-26T03:58:37.757Z,100411.91
2019-04-26T04:01:19.458Z,100405.88
2019-04-26T04:04:03.051Z,100399.30
2019-04-26T04:06:52.731Z,100401.89
2019-04-26T04:09:10.249Z,100403.75
2019-04-26T04:12:11.313Z,100394.77
2019-04-26T04:14:48.887Z,100395.06
2019-04-26T04:17:26.101Z,100416.49
2019-04-26T04:20:12.071Z,100439.59
2019-04-26T04:23:00.894Z,100439.56
2019-04-26T04:25:45.987Z,100425.72
2019-04-26T04:28:40.040Z,100424.23
2019-04-26T04:31:24.560Z,100422.39
2019-04-26T04:33:57.009Z,100434.53
2019-04-26T04:36:29.710Z,100435.55
2019-04-26T04:39:26.388Z,100447.64
2019-04-26T04:42:23.764Z,100448.39
2019-04-26T04:45:15.520Z,100442.41
2019-04-26T04:48:26.085Z,100421.80
2019-04-26T04:51:18.567Z,100411.77
2019-04-26T04:53:51.731Z,100423.19
2019-04-26T04:56:47.814Z,100416.04
2019-04-26T04:59:31.879Z,100430.02
2019-04-26T05:02:40.560Z,100449.38
2019-04-26T05:05:20.246Z,100450.86
2019-04-26T05:08:21.916Z,100460.31
2019-04-26T05:10:57.241Z,100465.11
2019-04-26T05:13:35.716Z,100467.09
2019-04-26T05:16:24.879Z,100462.95
2019-04-26T05:19:01.558Z,100464.22
2019-04-26T05:21:33.968Z,100475.48
2019-04-26T05:24:11.965Z,100469.84
2019-04-26T05:27:05.284Z,100468.91
2019-04-26T05:29:58.781Z,100475.01
2019-04-26T05:32:32.182Z,100469.02
2019-04-26T05:35:40.817Z,100465.11
2019-04-26T05:38:32.537Z,100454.83
2019-04-26T05:41:07.470Z,100453.47
2019-04-26T05:43:53.943Z,100464.28
2019-04-26T05:47:01.010Z,100477.69
2019-04-26T05:50:00.623Z,100470.92
2019-04-26T05:53:08.073Z,100468.27
2019-04-26T05:56:20.066Z,100462.06
2019-04-26T05:59:10.385Z,100470.02
2019-04-26T06:01:47.095Z,100467.41
2019-04-26T06:04:36.304Z,100470.87
2019-04-26T06:07:28.649Z,100489.91
2019-04-26T06:10:08.066Z,100490.38
2019-04-26T06:12:48.008Z,100475.81
2019-04-26T06:15:33.141Z,100477.11
2019-04-26T06:18:15.827Z,100494.90
2019-04-26T06:20:51.215Z,100504.25
2019-04-26T06:23:31.315Z,100530.92
2019-04-26T06:26:32.324Z,100542.13
2019-04-26T06:29:07.594Z,100551.08
2019-04-26T06:31:40.040Z,100556.72
2019-04-26T06:34:17.995Z,100549.25
2019-04-26T06:37:10.163Z,100545.41
2019-04-26T06:39:47.738Z,100549.89
2019-04-26T06:42:31.859Z,100553.95
2019-04-26T06:45:20.137Z,100549.81
2019-04-26T06:48:06.186Z,100540.06
2019-04-26T06:50:48.080Z,100538.95
2019-04-26T06:53:23.136Z,100538.73
2019-04-26T06:56:00.909Z,100527.36
2019-04-26T06:58:51.474Z,100537.27
2019-04-26T07:01:41.490Z,100547.23
2019-04-26T07:04:30.208Z,100557.38
2019-04-26T07:07:19.366Z,100563.36
2019-04-26T07:09:57.512Z,100561.27
2019-04-26T07:12:41.769Z,100563.78
2019-04-26T07:15:48.566Z,100569.08
2019-04-26T07:18:26.432Z,100570.58
2019-04-26T07:21:06.979Z,100578.63
2019-04-26T07:23:52.975Z,100581.82
2019-04-26T07:26:34.195Z,100591.57
2019-04-26T07:29:30.627Z,100588.14
2019-04-26T07:32:17.815Z,100589.85
2019-04-26T07:35:13.043Z,100594.71
2019-04-26T07:37:51.356Z,100603.58
2019-04-26T07:40:47.763Z,100604.22
2019-04-26T07:43:36.818Z,100604.04
2019-04-26T07:46:44.322Z,100596.65
2019-04-26T07:49:50.177Z,100589.75
2019-04-26T07:52:39.069Z,100586.72
2019-04-26T07:55:34.163Z,100585.05
2019-04-26T07:58:32.026Z,100589.73
2019-04-26T08:01:12.024Z,100608.89
2019-04-26T08:03:51.785Z,100609.33
2019-04-26T08:06:24.301Z,100607.14
2019-04-26T08:09:03.194Z,100605.04
2019-04-26T08:11:52.058Z,100602.80
2019-04-26T08:14:40.827Z,100605.46
2019-04-26T08:17:26.812Z,100619.41
2019-04-26T08:20:32.001Z,100629.03
2019-04-26T08:23:09.109Z,100638.06
2019-04-26T08:25:37.842Z,100639.05
2019-04-26T08:28:10.541Z,100639.44
2019-04-26T08:30:46.249Z,100638.16
2019-04-26T08:33:18.940Z,100639.22
2019-04-26T08:35:53.293Z,100647.66
2019-04-26T08:38:22.952Z,100653.64
2019-04-26T08:40:53.867Z,100657.87
2019-04-26T08:43:37.805Z,100653.55
2019-04-26T08:46:13.660Z,100659.44
2019-04-26T08:49:06.127Z,100654.53
2019-04-26T08:51:36.216Z,100660.83
2019-04-26T08:54:09.096Z,100661.19
2019-04-26T08:56:44.571Z,100657.37
2019-04-26T08:59:38.178Z,100654.37
2019-04-26T09:02:14.862Z,100653.54
2019-04-26T09:05:03.507Z,100651.53
2019-04-26T09:07:36.452Z,100647.89
2019-04-26T09:10:11.150Z,100642.98
2019-04-26T09:12:42.896Z,100643.27
2019-04-26T09:15:15.111Z,100650.73
2019-04-26T09:17:44.495Z,100648.23
2019-04-26T09:20:14.118Z,100645.92
2019-04-26T09:23:04.870Z,100640.06
2019-04-26T09:25:39.221Z,100644.84
2019-04-26T09:28:25.454Z,100662.72
2019-04-26T09:30:56.467Z,100674.19
2019-04-26T09:33:31.794Z,100660.05
2019-04-26T09:36:01.464Z,100653.54
2019-04-26T09:38:31.649Z,100663.56
2019-04-26T09:41:01.280Z,100669.79
2019-04-26T09:43:35.214Z,100667.56
2019-04-26T09:46:12.562Z,100675.80
2019-04-26T09:48:46.085Z,100673.45
2019-04-26T09:51:15.644Z,100670.70
2019-04-26T09:53:44.947Z,100680.75
2019-04-26T09:56:14.266Z,100685.27
2019-04-26T09:58:43.786Z,100688.78
2019-04-26T10:01:13.139Z,100692.69
2019-04-26T10:03:42.728Z,100696.08
2019-04-26T10:06:12.263Z,100704.51
2019-04-26T10:08:43.403Z,100702.94
2019-04-26T10:11:14.477Z,100699.69
2019-04-26T10:13:45.465Z,100702.50
2019-04-26T10:16:28.477Z,100697.52
2019-04-26T10:18:59.495Z,100698.83
2019-04-26T10:21:28.810Z,100707.59
2019-04-26T10:23:58.295Z,100698.75
2019-04-26T10:26:29.533Z,100695.28
2019-04-26T10:28:58.859Z,100691.13
2019-04-26T10:31:28.234Z,100693.95
2019-04-26T10:33:57.513Z,100689.91
2019-04-26T10:36:30.254Z,100678.25
2019-04-26T10:38:58.356Z,100671.04
2019-04-26T10:41:28.192Z,100666.23
2019-04-26T10:43:57.498Z,100663.02
2019-04-26T10:46:28.372Z,100663.59
2019-04-26T10:49:08.257Z,100675.66
2019-04-26T10:51:34.263Z,100682.50
2019-04-26T10:54:06.083Z,100691.19
2019-04-26T10:56:38.098Z,100675.86
2019-04-26T10:59:14.845Z,100668.50
2019-04-26T11:01:45.363Z,100666.58
2019-04-26T11:04:14.739Z,100672.27
2019-04-26T11:06:44.261Z,100661.60
2019-04-26T11:09:13.557Z,100654.97
2019-04-26T11:11:43.031Z,100665.63
2019-04-26T11:14:12.484Z,100669.91
2019-04-26T11:16:42.284Z,100666.75
2019-04-26T11:19:12.194Z,100671.22
2019-04-26T11:21:41.746Z,100671.22
2019-04-26T11:24:11.431Z,100639.03
2019-04-26T11:26:41.335Z,100682.88
2019-04-26T11:29:10.803Z,100678.66
2019-04-26T11:31:40.396Z,100678.09
2019-04-26T11:34:09.672Z,100676.62
2019-04-26T11:36:41.831Z,100673.00
2019-04-26T11:39:12.945Z,100670.51
2019-04-26T11:41:42.966Z,100664.84
2019-04-26T11:44:12.369Z,100666.80
2019-04-26T11:46:44.945Z,100659.83
2019-04-26T11:49:12.799Z,100659.55
2019-04-26T11:51:42.603Z,100656.52
2019-04-26T11:54:11.991Z,100660.70
2019-04-26T11:56:42.051Z,100651.86
2019-04-26T11:59:11.414Z,100654.82
2019-04-26T12:01:42.010Z,100652.49
2019-04-26T12:04:15.981Z,100652.02
2019-04-26T12:06:46.947Z,100653.38
2019-04-26T12:09:23.850Z,100653.18
2019-04-26T12:12:03.908Z,100649.69
2019-04-26T12:14:24.315Z,100647.85
2019-04-26T12:16:59.096Z,100653.36
2019-04-26T12:19:24.971Z,100645.20
2019-04-26T12:21:54.356Z,100650.66
2019-04-26T12:24:25.272Z,100655.97
2019-04-26T12:26:55.917Z,100653.70
2019-04-26T12:29:26.263Z,100655.87
2019-04-26T12:31:55.603Z,100658.38
2019-04-26T12:34:24.895Z,100662.00
2019-04-26T12:36:54.839Z,100663.75
2019-04-26T12:39:25.099Z,100666.74
2019-04-26T12:41:54.516Z,100671.14
2019-04-26T12:44:25.711Z,100663.14
2019-04-26T12:47:03.659Z,100662.93
2019-04-26T12:49:30.801Z,100661.44
2019-04-26T12:52:00.560Z,100663.39
2019-04-26T12:54:30.022Z,100664.81
2019-04-26T12:57:01.628Z,100663.66
2019-04-26T12:59:43.335Z,100658.56
2019-04-26T13:02:05.884Z,100666.69
2019-04-26T13:04:36.366Z,100659.23
2019-04-26T13:07:07.280Z,100661.80
2019-04-26T13:09:39.100Z,100662.86
2019-04-26T13:12:12.759Z,100666.98
2019-04-26T13:14:52.931Z,100664.77
2019-04-26T13:17:35.752Z,100668.61
2019-04-26T13:20:05.469Z,100668.38
2019-04-26T13:22:45.357Z,100664.70
2019-04-26T13:25:15.242Z,100665.16
2019-04-26T13:27:41.572Z,100657.13
2019-04-26T13:30:10.718Z,100655.31
2019-04-26T13:32:41.230Z,100659.88
2019-04-26T13:35:11.309Z,100661.94
2019-04-26T13:37:41.594Z,100661.54
2019-04-26T13:40:11.069Z,100668.23
2019-04-26T13:42:40.929Z,100664.53
2019-04-26T13:45:15.433Z,100664.80
2019-04-26T13:48:04.507Z,100660.56
2019-04-26T13:50:35.461Z,100663.58
2019-04-26T13:53:05.252Z,100671.86
2019-04-26T13:55:34.542Z,100670.52
2019-04-26T13:58:03.921Z,100668.33
2019-04-26T14:00:33.609Z,100668.59
2019-04-26T14:03:04.179Z,100670.58
2019-04-26T14:05:33.659Z,100683.05
2019-04-26T14:08:02.971Z,100687.00
2019-04-26T14:10:32.362Z,100680.37
2019-04-26T14:13:01.729Z,100681.06
2019-04-26T14:15:31.030Z,100679.25
2019-04-26T14:18:04.246Z,100669.55
2019-04-26T14:20:31.303Z,100665.08
2019-04-26T14:23:04.943Z,100665.77
2019-04-26T14:25:35.875Z,100669.47
2019-04-26T14:28:05.203Z,100670.95
2019-04-26T14:30:37.452Z,100670.89
2019-04-26T14:33:05.954Z,100670.12
2019-04-26T14:35:35.289Z,100667.37
2019-04-26T14:38:04.721Z,100659.29
2019-04-26T14:40:34.065Z,100651.47
2019-04-26T14:43:06.817Z,100653.08
2019-04-26T14:45:36.367Z,100651.66
2019-04-26T14:48:05.607Z,100660.87
2019-04-26T14:50:35.217Z,100657.44
2019-04-26T14:53:04.970Z,100657.81
2019-04-26T14:55:34.282Z,100652.69
2019-04-26T14:58:03.703Z,100647.78
2019-04-26T15:00:37.372Z,100650.82
2019-04-26T15:03:26.568Z,100641.47
2019-04-26T15:06:16.742Z,100638.36
2019-04-26T15:08:48.778Z,100636.45
2019-04-26T15:11:20.008Z,100636.38
2019-04-26T15:13:49.494Z,100641.84
2019-04-26T15:16:21.962Z,100634.31
2019-04-26T15:18:49.793Z,100640.69
2019-04-26T15:21:19.131Z,100643.22
2019-04-26T15:23:48.459Z,100635.51
2019-04-26T15:26:22.101Z,100640.03
2019-04-26T15:28:50.353Z,100636.77
2019-04-26T15:31:21.734Z,100638.73
2019-04-26T15:33:52.840Z,100634.14
2019-04-26T15:36:23.213Z,100633.61
2019-04-26T15:38:52.947Z,100624.34
2019-04-26T15:41:24.046Z,100625.72
2019-04-26T15:43:55.073Z,100632.80
2019-04-26T15:46:29.025Z,100637.25
2019-04-26T15:49:12.571Z,100643.02
2019-04-26T15:51:42.755Z,100648.75
2019-04-26T15:54:12.299Z,100639.41
2019-04-26T15:56:41.607Z,100637.63
2019-04-26T15:59:12.803Z,100636.08
2019-04-26T16:01:47.693Z,100646.89
2019-04-26T16:04:17.069Z,100640.80
2019-04-26T16:06:45.111Z,100639.00
2019-04-26T16:09:19.718Z,100644.19
2019-04-26T16:11:49.558Z,100637.48
2019-04-26T16:14:16.735Z,100636.70
2019-04-26T16:16:46.025Z,100637.64
2019-04-26T16:19:15.531Z,100643.61
2019-04-26T16:21:48.130Z,100636.34
2019-04-26T16:24:17.115Z,100638.55
2019-04-26T16:26:50.582Z,100636.37
2019-04-26T16:29:24.182Z,100638.16
2019-04-26T16:32:07.000Z,100641.98
2019-04-26T16:34:47.194Z,100637.97
2019-04-26T16:37:15.073Z,100636.66
2019-04-26T16:39:48.400Z,100639.20
2019-04-26T16:42:14.521Z,100640.70
2019-04-26T16:44:45.086Z,100642.82
2019-04-26T16:47:14.798Z,100643.69
2019-04-26T16:49:46.508Z,100649.10
2019-04-26T16:52:15.241Z,100655.98
2019-04-26T16:54:44.669Z,100658.01
2019-04-26T16:57:14.188Z,100655.61
2019-04-26T16:59:50.994Z,100659.08
2019-04-26T17:02:15.959Z,100658.33
2019-04-26T17:04:45.664Z,100655.81
2019-04-26T17:07:21.937Z,100659.98
2019-04-26T17:09:57.683Z,100658.77
2019-04-26T17:12:17.286Z,100667.69
2019-04-26T17:14:48.723Z,100669.29
2019-04-26T17:17:17.670Z,100658.27
2019-04-26T17:19:47.162Z,100662.17
2019-04-26T17:22:21.056Z,100664.89
2019-04-26T17:25:06.940Z,100665.11
2019-04-26T17:27:36.457Z,100660.97
2019-04-26T17:30:09.461Z,100660.09
2019-04-26T17:32:38.816Z,100656.77
2019-04-26T17:35:08.168Z,100661.13
2019-04-26T17:37:37.488Z,100659.62
2019-04-26T17:40:07.237Z,100653.66
2019-04-26T17:42:36.747Z,100659.61
2019-04-26T17:45:07.575Z,100654.88
2019-04-26T17:47:40.132Z,100654.31
2019-04-26T17:50:10.925Z,100657.55
2019-04-26T17:52:40.910Z,100663.61
2019-04-26T17:55:14.913Z,100670.13
2019-04-26T17:57:48.528Z,100673.52
2019-04-26T18:00:21.745Z,100675.87
2019-04-26T18:02:48.437Z,100641.02
2019-04-26T18:05:18.991Z,100676.84
2019-04-26T18:07:56.355Z,100688.39
2019-04-26T18:10:20.662Z,100690.70
2019-04-26T18:12:50.798Z,100687.33
2019-04-26T18:15:20.506Z,100695.02
2019-04-26T18:17:51.533Z,100699.65
2019-04-26T18:20:23.502Z,100702.41
2019-04-26T18:22:57.808Z,100709.36
2019-04-26T18:25:27.117Z,100719.58
2019-04-26T18:27:56.559Z,100717.44
2019-04-26T18:30:26.846Z,100720.97
2019-04-26T18:32:56.231Z,100726.28
2019-04-26T18:35:25.721Z,100730.28
2019-04-26T18:37:55.152Z,100704.19
2019-04-26T18:40:24.594Z,100734.72
2019-04-26T18:42:55.122Z,100736.87
2019-04-26T18:45:28.916Z,100740.64
2019-04-26T18:48:00.958Z,100739.95
2019-04-26T18:50:28.527Z,100748.23
2019-04-26T18:53:15.114Z,100739.69
2019-04-26T18:55:53.549Z,100743.80
2019-04-26T18:58:23.624Z,100755.56
2019-04-26T19:00:53.293Z,100755.16
2019-04-26T19:03:24.727Z,100756.85
2019-04-26T19:05:54.338Z,100759.04
2019-04-26T19:08:27.313Z,100760.15
2019-04-26T19:11:01.006Z,100766.86
2019-04-26T19:13:37.584Z,100766.78
2019-04-26T19:16:16.687Z,100774.34
2019-04-26T19:18:46.859Z,100772.65
2019-04-26T19:21:27.175Z,100774.39
2019-04-26T19:24:05.767Z,100777.78
2019-04-26T19:26:32.992Z,100774.30
2019-04-26T19:28:59.284Z,100773.17
2019-04-26T19:31:28.696Z,100770.59
2019-04-26T19:33:57.962Z,100769.50
2019-04-26T19:36:29.346Z,100770.48
2019-04-26T19:38:58.563Z,100769.58
2019-04-26T19:41:28.104Z,100778.23
2019-04-26T19:43:57.557Z,100780.45
2019-04-26T19:46:28.563Z,100784.97
2019-04-26T19:49:15.422Z,100784.98
2019-04-26T19:51:56.635Z,100785.91
2019-04-26T19:54:39.664Z,100785.95
2019-04-26T19:57:10.735Z,100781.86
2019-04-26T19:59:40.048Z,100773.44
2019-04-26T20:02:09.529Z,100772.20
2019-04-26T20:04:38.829Z,100776.17
2019-04-26T20:07:08.212Z,100776.97
2019-04-26T20:09:37.638Z,100778.44
2019-04-26T20:12:07.429Z,100780.84
2019-04-26T20:14:47.134Z,100784.07
2019-04-26T20:17:07.935Z,100779.34
2019-04-26T20:19:37.705Z,100780.67
2019-04-26T20:22:07.103Z,100779.94
2019-04-26T20:24:36.479Z,100784.68
2019-04-26T20:27:06.071Z,100781.68
2019-04-26T20:29:35.532Z,100789.80
2019-04-26T20:32:06.617Z,100789.94
2019-04-26T20:34:36.086Z,100785.03
2019-04-26T20:37:05.791Z,100793.66
2019-04-26T20:39:35.194Z,100788.58
2019-04-26T20:42:04.519Z,100781.18
2019-04-26T20:44:48.240Z,100798.22
2019-04-26T20:47:07.681Z,100810.25
2019-04-26T20:49:47.396Z,100818.68
2019-04-26T20:52:07.399Z,100818.45
2019-04-26T20:54:36.799Z,100810.89
2019-04-26T20:57:06.257Z,100807.52
2019-04-26T20:59:36.212Z,100800.91
2019-04-26T21:02:08.033Z,100790.42
2019-04-26T21:04:38.574Z,100790.65
2019-04-26T21:07:11.409Z,100791.20
2019-04-26T21:09:40.860Z,100786.73
2019-04-26T21:12:15.849Z,100785.64
2019-04-26T21:14:44.620Z,100780.27
2019-04-26T21:17:13.495Z,100775.35
2019-04-26T21:19:43.090Z,100775.59
2019-04-26T21:22:12.632Z,100780.73
2019-04-26T21:24:43.584Z,100783.99
2019-04-26T21:27:14.543Z,100785.16
2019-04-26T21:30:03.389Z,100788.36
2019-04-26T21:32:40.499Z,100782.03
2019-04-26T21:35:10.395Z,100782.08
2019-04-26T21:37:43.023Z,100783.80
2019-04-26T21:40:26.020Z,100790.13
2019-04-26T21:42:59.259Z,100782.73
2019-04-26T21:45:28.470Z,100781.99
2019-04-26T21:47:56.549Z,100787.91
2019-04-26T21:50:29.154Z,100794.19
2019-04-26T21:52:58.569Z,100799.42
2019-04-26T21:55:35.318Z,100794.90
2019-04-26T21:57:59.172Z,100802.09
2019-04-26T22:00:30.117Z,100798.06
2019-04-26T22:02:59.503Z,100800.83
2019-04-26T22:05:29.892Z,100802.31
2019-04-26T22:07:59.325Z,100801.59
2019-04-26T22:10:43.722Z,100804.75
2019-04-26T22:13:15.057Z,100803.84
2019-04-26T22:16:07.763Z,100798.86
2019-04-26T22:18:43.565Z,100803.63
2019-04-26T22:21:21.467Z,100807.88
2019-04-26T22:24:08.584Z,100800.81
2019-04-26T22:26:44.482Z,100805.86
2019-04-26T22:29:13.937Z,100813.88
2019-04-26T22:31:41.439Z,100809.49
2019-04-26T22:34:12.915Z,100812.74
2019-04-26T22:36:43.848Z,100809.48
2019-04-26T22:39:19.119Z,100811.38
2019-04-26T22:41:48.404Z,100809.83
2019-04-26T22:44:31.377Z,100812.78
2019-04-26T22:47:07.075Z,100810.94
2019-04-26T22:49:41.850Z,100814.25
2019-04-26T22:52:11.238Z,100823.94
2019-04-26T22:54:44.699Z,100821.83
2019-04-26T22:57:13.105Z,100819.35
2019-04-26T22:59:43.327Z,100817.79
2019-04-26T23:02:18.559Z,100812.87
2019-04-26T23:04:45.897Z,100814.59
2019-04-26T23:07:18.437Z,100814.17
2019-04-26T23:09:51.914Z,100813.15
2019-04-26T23:12:37.493Z,100811.98
2019-04-26T23:15:08.883Z,100819.58
2019-04-26T23:17:56.297Z,100811.83
2019-04-26T23:20:34.301Z,100815.89
2019-04-26T23:23:05.189Z,100816.87
2019-04-26T23:25:32.907Z,100806.64
2019-04-26T23:28:03.625Z,100811.16
2019-04-26T23:30:33.149Z,100805.53
2019-04-26T23:33:02.798Z,100812.55
2019-04-26T23:35:37.557Z,100810.00
2019-04-26T23:38:05.214Z,100809.73
2019-04-26T23:40:34.465Z,100797.70
2019-04-26T23:43:03.925Z,100798.39
2019-04-26T23:45:33.420Z,100800.14
2019-04-26T23:48:03.615Z,100799.98
2019-04-26T23:50:34.091Z,100800.80
2019-04-26T23:53:03.670Z,100804.38
2019-04-26T23:55:33.847Z,100800.35
2019-04-26T23:58:04.892Z,100799.22
